createdAt,value
2019-02-28T00:01:55.446Z,26.80
2019-02-28T00:04:25.884Z,22.33
2019-02-28T00:06:56.497Z,24.33
2019-02-28T00:09:26.992Z,26.20
2019-02-28T00:11:57.518Z,28.10
2019-02-28T00:14:28.479Z,27.20
2019-02-28T00:16:58.940Z,23.43
2019-02-28T00:19:29.350Z,24.57
2019-02-28T00:21:59.842Z,24.07
2019-02-28T00:24:30.769Z,23.07
2019-02-28T00:27:01.341Z,27.30
2019-02-28T00:29:33.709Z,22.83
2019-02-28T00:32:03.999Z,30.50
2019-02-28T00:34:36.282Z,24.77
2019-02-28T00:37:06.676Z,26.87
2019-02-28T00:39:37.134Z,23.77
2019-02-28T00:42:07.614Z,24.73
2019-02-28T00:44:38.052Z,30.07
2019-02-28T00:47:08.639Z,27.53
2019-02-28T00:49:39.062Z,24.20
2019-02-28T00:52:09.509Z,23.83
2019-02-28T00:54:43.379Z,26.20
2019-02-28T00:57:12.192Z,25.10
2019-02-28T00:59:42.697Z,33.43
2019-02-28T01:02:13.248Z,27.03
2019-02-28T01:04:43.704Z,29.07
2019-02-28T01:07:16.337Z,28.80
2019-02-28T01:09:46.378Z,31.37
2019-02-28T01:12:19.149Z,26.93
2019-02-28T01:14:49.096Z,27.87
2019-02-28T01:17:19.523Z,32.30
2019-02-28T01:19:49.969Z,27.67
2019-02-28T01:22:20.492Z,30.87
2019-02-28T01:24:50.991Z,29.20
2019-02-28T01:27:21.824Z,29.90
2019-02-28T01:29:52.262Z,31.63
2019-02-28T01:32:22.770Z,29.00
2019-02-28T01:34:53.239Z,32.57
2019-02-28T01:37:23.811Z,29.93
2019-02-28T01:39:54.259Z,29.37
2019-02-28T01:42:24.700Z,30.73
2019-02-28T01:44:55.172Z,30.97
2019-02-28T01:47:25.724Z,33.77
2019-02-28T01:49:57.791Z,34.00
2019-02-28T01:52:28.511Z,31.37
2019-02-28T01:54:59.788Z,33.78
2019-02-28T01:57:30.235Z,36.47
2019-02-28T02:00:00.711Z,32.70
2019-02-28T02:02:31.132Z,32.43
2019-02-28T02:05:01.615Z,33.63
2019-02-28T02:07:33.221Z,30.97
2019-02-28T02:10:06.968Z,34.97
2019-02-28T02:12:37.453Z,34.77
2019-02-28T02:15:09.648Z,36.77
2019-02-28T02:17:40.094Z,36.83
2019-02-28T02:20:11.170Z,28.50
2019-02-28T02:22:44.602Z,34.43
2019-02-28T02:25:14.274Z,31.43
2019-02-28T02:27:44.791Z,34.83
2019-02-28T02:30:20.923Z,38.30
2019-02-28T02:32:51.387Z,35.67
2019-02-28T02:35:21.839Z,33.77
2019-02-28T02:37:52.619Z,40.60
2019-02-28T02:40:24.197Z,30.07
2019-02-28T02:42:54.974Z,36.17
2019-02-28T02:45:25.477Z,41.87
2019-02-28T02:47:55.963Z,38.43
2019-02-28T02:50:34.263Z,39.43
2019-02-28T02:53:04.845Z,40.70
2019-02-28T02:55:30.967Z,38.97
2019-02-28T02:58:01.386Z,34.53
2019-02-28T03:00:31.888Z,43.23
2019-02-28T03:03:06.041Z,38.57
2019-02-28T03:05:35.753Z,35.13
2019-02-28T03:08:06.781Z,39.23
2019-02-28T03:10:37.224Z,41.13
2019-02-28T03:13:07.657Z,35.83
2019-02-28T03:15:38.145Z,38.13
2019-02-28T03:18:08.583Z,36.80
2019-02-28T03:20:42.236Z,36.67
2019-02-28T03:23:11.257Z,36.30
2019-02-28T03:25:41.703Z,35.60
2019-02-28T03:28:14.041Z,38.43
2019-02-28T03:30:44.390Z,41.70
2019-02-28T03:33:23.374Z,39.47
2019-02-28T03:35:47.278Z,40.30
2019-02-28T03:38:17.731Z,45.67
2019-02-28T03:40:48.207Z,38.13
2019-02-28T03:43:18.655Z,39.27
2019-02-28T03:45:49.116Z,39.53
2019-02-28T03:48:19.577Z,41.93
2019-02-28T03:50:50.220Z,41.03
2019-02-28T03:53:21.151Z,43.77
2019-02-28T03:55:51.657Z,40.03
2019-02-28T03:58:22.139Z,39.03
2019-02-28T04:00:52.608Z,43.23
2019-02-28T04:03:23.097Z,39.53
2019-02-28T04:05:53.557Z,46.20
2019-02-28T04:08:29.363Z,40.20
2019-02-28T04:10:56.352Z,40.27
2019-02-28T04:13:26.847Z,41.30
2019-02-28T04:16:08.700Z,43.92
2019-02-28T04:18:29.703Z,39.40
2019-02-28T04:21:00.163Z,41.50
2019-02-28T04:23:35.530Z,39.73
2019-02-28T04:26:03.260Z,47.03
2019-02-28T04:28:33.704Z,41.90
2019-02-28T04:31:04.168Z,39.53
2019-02-28T04:33:38.850Z,41.77
2019-02-28T04:36:06.863Z,44.83
2019-02-28T04:38:37.294Z,44.33
2019-02-28T04:41:07.743Z,48.77
2019-02-28T04:43:38.194Z,47.43
2019-02-28T04:46:08.641Z,43.93
2019-02-28T04:48:39.176Z,47.07
2019-02-28T04:51:09.642Z,41.03
2019-02-28T04:53:40.099Z,39.43
2019-02-28T04:56:11.421Z,43.70
2019-02-28T04:58:42.682Z,44.50
2019-02-28T05:01:13.520Z,49.40
2019-02-28T05:03:43.926Z,41.00
2019-02-28T05:06:14.397Z,42.93
2019-02-28T05:08:44.853Z,47.27
2019-02-28T05:11:15.310Z,44.90
2019-02-28T05:13:48.735Z,39.20
2019-02-28T05:16:18.004Z,45.67
2019-02-28T05:18:48.451Z,40.93
2019-02-28T05:21:19.535Z,47.57
2019-02-28T05:23:50.655Z,45.13
2019-02-28T05:26:23.441Z,47.83
2019-02-28T05:28:53.556Z,45.90
2019-02-28T05:31:26.935Z,44.60
2019-02-28T05:33:56.382Z,43.30
2019-02-28T05:36:26.864Z,41.10
2019-02-28T05:38:57.442Z,45.90
2019-02-28T05:41:27.891Z,59.00
2019-02-28T05:43:58.375Z,49.23
2019-02-28T05:46:28.854Z,49.53
2019-02-28T05:48:59.317Z,48.53
2019-02-28T05:51:29.747Z,46.67
2019-02-28T05:54:00.209Z,49.57
2019-02-28T05:56:33.254Z,47.37
2019-02-28T05:59:03.006Z,61.43
2019-02-28T06:01:33.437Z,50.47
2019-02-28T06:04:04.055Z,52.33
2019-02-28T06:06:34.516Z,49.27
2019-02-28T06:09:06.269Z,50.33
2019-02-28T06:11:36.734Z,52.20
2019-02-28T06:14:07.193Z,50.93
2019-02-28T06:16:37.621Z,52.73
2019-02-28T06:19:09.092Z,51.80
2019-02-28T06:21:39.602Z,48.40
2019-02-28T06:24:12.773Z,58.03
2019-02-28T06:26:42.264Z,51.50
2019-02-28T06:29:12.739Z,43.27
2019-02-28T06:31:45.567Z,51.47
2019-02-28T06:34:15.366Z,48.00
2019-02-28T06:36:45.802Z,49.27
2019-02-28T06:39:17.579Z,52.23
2019-02-28T06:41:47.985Z,58.03
2019-02-28T06:44:18.468Z,46.13
2019-02-28T06:46:49.071Z,49.03
2019-02-28T06:49:19.513Z,45.67
2019-02-28T06:51:51.385Z,48.60
2019-02-28T06:54:22.454Z,49.93
2019-02-28T06:56:54.127Z,42.67
2019-02-28T06:59:25.176Z,45.17
2019-02-28T07:01:57.585Z,45.20
2019-02-28T07:04:28.441Z,48.30
2019-02-28T07:07:01.905Z,46.27
2019-02-28T07:09:33.652Z,44.93
2019-02-28T07:12:04.545Z,48.43
2019-02-28T07:14:35.038Z,48.87
2019-02-28T07:17:07.789Z,53.37
2019-02-28T07:19:37.799Z,49.53
2019-02-28T07:22:08.271Z,51.83
2019-02-28T07:24:38.743Z,53.47
2019-02-28T07:27:09.206Z,51.80
2019-02-28T07:29:42.705Z,62.33
2019-02-28T07:32:12.090Z,54.67
2019-02-28T07:34:42.626Z,48.40
2019-02-28T07:37:13.120Z,54.77
2019-02-28T07:39:43.658Z,51.37
2019-02-28T07:42:14.153Z,59.73
2019-02-28T07:44:44.626Z,52.23
2019-02-28T07:47:17.550Z,54.93
2019-02-28T07:49:50.075Z,51.05
2019-02-28T07:52:20.528Z,54.43
2019-02-28T07:54:51.530Z,57.97
2019-02-28T07:57:23.339Z,53.37
2019-02-28T07:59:53.851Z,51.80
2019-02-28T08:02:24.429Z,55.57
2019-02-28T08:04:55.740Z,51.77
2019-02-28T08:07:26.525Z,55.20
2019-02-28T08:09:58.119Z,56.30
2019-02-28T08:12:30.848Z,60.03
2019-02-28T08:15:00.953Z,65.43
2019-02-28T08:17:31.475Z,56.10
2019-02-28T08:20:01.975Z,58.47
2019-02-28T08:22:32.425Z,56.00
2019-02-28T08:25:02.954Z,63.27
2019-02-28T08:27:33.494Z,50.97
2019-02-28T08:30:03.970Z,64.65
2019-02-28T08:32:34.511Z,55.47
2019-02-28T08:35:05.295Z,55.40
2019-02-28T08:37:35.871Z,59.10
2019-02-28T08:40:08.213Z,58.57
2019-02-28T08:42:39.774Z,60.87
2019-02-28T08:45:12.655Z,64.07
2019-02-28T08:47:43.179Z,64.37
2019-02-28T08:50:21.485Z,59.63
2019-02-28T08:52:52.750Z,57.37
2019-02-28T08:55:28.794Z,63.40
2019-02-28T08:57:58.116Z,59.37
2019-02-28T09:00:32.613Z,58.07
2019-02-28T09:03:01.009Z,64.40
2019-02-28T09:05:31.574Z,60.50
2019-02-28T09:08:02.137Z,68.57
2019-02-28T09:10:32.609Z,61.37
2019-02-28T09:13:07.693Z,63.43
2019-02-28T09:15:37.268Z,65.47
2019-02-28T09:18:07.712Z,66.43
2019-02-28T09:20:38.187Z,63.10
2019-02-28T09:23:08.621Z,62.83
2019-02-28T09:25:39.093Z,68.30
2019-02-28T09:28:10.182Z,69.33
2019-02-28T09:30:42.173Z,63.93
2019-02-28T09:33:12.675Z,67.43
2019-02-28T09:35:46.334Z,58.70
2019-02-28T09:38:15.493Z,65.00
2019-02-28T09:40:46.009Z,59.70
2019-02-28T09:43:16.514Z,64.90
2019-02-28T09:45:47.016Z,62.83
2019-02-28T09:48:17.496Z,73.80
2019-02-28T09:50:47.942Z,69.03
2019-02-28T09:53:18.426Z,69.23
2019-02-28T09:55:48.885Z,62.90
2019-02-28T09:58:19.356Z,63.27
2019-02-28T10:00:50.433Z,70.87
2019-02-28T10:03:20.956Z,63.33
2019-02-28T10:05:51.408Z,58.47
2019-02-28T10:08:22.011Z,62.10
2019-02-28T10:10:55.791Z,61.53
2019-02-28T10:13:24.867Z,65.17
2019-02-28T10:15:55.384Z,61.90
2019-02-28T10:18:25.897Z,69.07
2019-02-28T10:20:59.102Z,61.93
2019-02-28T10:23:28.823Z,69.07
2019-02-28T10:25:59.315Z,68.77
2019-02-28T10:28:29.820Z,68.83
2019-02-28T10:31:00.304Z,54.90
2019-02-28T10:33:30.784Z,63.70
2019-02-28T10:36:01.269Z,65.97
2019-02-28T10:38:33.108Z,62.43
2019-02-28T10:41:03.904Z,72.33
2019-02-28T10:43:34.435Z,62.67
2019-02-28T10:46:05.171Z,65.67
2019-02-28T10:48:41.861Z,69.93
2019-02-28T10:51:13.987Z,67.13
2019-02-28T10:53:40.256Z,66.70
2019-02-28T10:56:10.850Z,63.43
2019-02-28T10:58:41.297Z,61.30
2019-02-28T11:01:14.150Z,66.13
2019-02-28T11:03:44.626Z,66.37
2019-02-28T11:06:15.062Z,68.03
2019-02-28T11:08:47.472Z,66.03
2019-02-28T11:11:18.690Z,70.40
2019-02-28T11:13:49.283Z,66.33
2019-02-28T11:16:20.518Z,64.17
2019-02-28T11:18:52.046Z,63.37
2019-02-28T11:21:22.715Z,64.03
2019-02-28T11:23:53.250Z,61.30
2019-02-28T11:26:23.849Z,66.20
2019-02-28T11:28:54.438Z,61.90
2019-02-28T11:31:25.831Z,73.10
2019-02-28T11:33:56.485Z,69.93
2019-02-28T11:36:26.941Z,61.57
2019-02-28T11:38:57.509Z,69.70
2019-02-28T11:41:28.069Z,63.03
2019-02-28T11:43:58.553Z,63.00
2019-02-28T11:46:29.078Z,64.07
2019-02-28T11:48:59.535Z,67.57
2019-02-28T11:51:30.375Z,67.20
2019-02-28T11:54:01.856Z,64.77
2019-02-28T11:56:32.331Z,67.17
2019-02-28T11:59:02.836Z,67.27
2019-02-28T12:01:33.422Z,64.80
2019-02-28T12:04:03.960Z,61.07
2019-02-28T12:06:34.556Z,69.63
2019-02-28T12:09:07.484Z,64.23
2019-02-28T12:11:37.950Z,63.73
2019-02-28T12:14:08.399Z,61.67
2019-02-28T12:16:38.997Z,64.13
2019-02-28T12:19:12.474Z,62.60
2019-02-28T12:21:41.676Z,49.87
2019-02-28T12:24:12.176Z,54.23
2019-02-28T12:26:42.727Z,54.77
2019-02-28T12:29:13.861Z,49.53
2019-02-28T12:31:45.495Z,51.93
2019-02-28T12:34:16.075Z,49.93
2019-02-28T12:36:49.379Z,55.77
2019-02-28T12:39:19.056Z,52.77
2019-02-28T12:41:49.661Z,53.97
2019-02-28T12:44:20.236Z,47.47
2019-02-28T12:46:50.872Z,50.23
2019-02-28T12:49:22.438Z,54.87
2019-02-28T12:51:53.884Z,52.43
2019-02-28T12:54:25.945Z,52.50
2019-02-28T12:56:56.680Z,51.73
2019-02-28T12:59:27.301Z,52.50
2019-02-28T13:01:57.879Z,52.50
2019-02-28T13:04:32.538Z,51.80
2019-02-28T13:07:02.997Z,55.77
2019-02-28T13:09:33.542Z,52.73
2019-02-28T13:12:04.048Z,60.00
2019-02-28T13:14:36.876Z,54.73
2019-02-28T13:17:06.958Z,57.17
2019-02-28T13:19:37.588Z,50.00
2019-02-28T13:22:08.123Z,56.13
2019-02-28T13:24:42.417Z,54.50
2019-02-28T13:27:11.588Z,56.83
2019-02-28T13:29:42.223Z,56.05
2019-02-28T13:32:12.992Z,53.73
2019-02-28T13:34:43.454Z,55.13
2019-02-28T13:37:14.107Z,61.77
2019-02-28T13:39:44.803Z,59.47
2019-02-28T13:42:15.260Z,59.57
2019-02-28T13:44:45.819Z,56.75
2019-02-28T13:47:16.311Z,68.67
2019-02-28T13:49:49.761Z,62.07
2019-02-28T13:52:20.583Z,61.70
2019-02-28T13:54:51.517Z,62.20
2019-02-28T13:57:21.999Z,61.47
2019-02-28T13:59:52.698Z,60.23
2019-02-28T14:02:26.230Z,60.13
2019-02-28T14:04:58.700Z,59.90
2019-02-28T14:07:30.114Z,60.70
2019-02-28T14:10:00.334Z,60.57
2019-02-28T14:12:30.897Z,58.63
2019-02-28T14:15:02.679Z,62.10
2019-02-28T14:17:35.498Z,59.87
2019-02-28T14:20:06.091Z,62.47
2019-02-28T14:22:36.609Z,61.87
2019-02-28T14:25:10.892Z,71.20
2019-02-28T14:27:41.420Z,62.63
2019-02-28T14:30:13.655Z,64.37
2019-02-28T14:32:45.516Z,68.40
2019-02-28T14:35:16.998Z,66.93
2019-02-28T14:37:47.562Z,75.10
2019-02-28T14:40:18.815Z,71.33
2019-02-28T14:42:49.407Z,64.53
2019-02-28T14:45:20.624Z,73.70
2019-02-28T14:47:57.023Z,71.20
2019-02-28T14:50:25.008Z,69.87
2019-02-28T14:52:56.617Z,66.93
2019-02-28T14:55:29.311Z,75.40
2019-02-28T14:57:59.472Z,66.57
2019-02-28T15:00:30.177Z,67.70
2019-02-28T15:03:03.041Z,68.50
2019-02-28T15:05:34.091Z,67.63
2019-02-28T15:08:06.264Z,63.37
2019-02-28T15:10:36.964Z,64.90
2019-02-28T15:13:07.553Z,69.20
2019-02-28T15:15:38.073Z,68.77
2019-02-28T15:18:10.947Z,63.13
2019-02-28T15:20:41.061Z,61.97
2019-02-28T15:23:11.546Z,61.27
2019-02-28T15:25:43.270Z,57.67
2019-02-28T15:28:14.726Z,57.47
2019-02-28T15:30:45.274Z,56.40
2019-02-28T15:33:15.799Z,58.73
2019-02-28T15:35:46.491Z,60.23
2019-02-28T15:38:18.547Z,66.27
2019-02-28T15:40:49.112Z,69.90
2019-02-28T15:43:19.573Z,63.10
2019-02-28T15:45:50.223Z,65.00
2019-02-28T15:48:20.765Z,63.83
2019-02-28T15:50:52.593Z,61.90
2019-02-28T15:53:23.280Z,61.90
2019-02-28T15:55:53.954Z,63.00
2019-02-28T15:58:26.568Z,59.83
2019-02-28T16:00:57.532Z,68.93
2019-02-28T16:03:28.076Z,69.33
2019-02-28T16:05:58.607Z,61.13
2019-02-28T16:08:29.147Z,54.40
2019-02-28T16:10:59.713Z,51.67
2019-02-28T16:13:30.184Z,50.50
2019-02-28T16:16:00.706Z,54.50
2019-02-28T16:18:31.302Z,46.93
2019-02-28T16:21:03.577Z,54.73
2019-02-28T16:23:33.941Z,46.10
2019-02-28T16:26:04.827Z,54.47
2019-02-28T16:28:35.341Z,46.57
2019-02-28T16:31:06.358Z,43.47
2019-02-28T16:33:37.830Z,48.53
2019-02-28T16:36:08.399Z,44.93
2019-02-28T16:38:38.894Z,45.50
2019-02-28T16:41:09.412Z,43.07
2019-02-28T16:43:39.855Z,46.53
2019-02-28T16:46:12.392Z,40.97
2019-02-28T16:48:42.561Z,53.43
2019-02-28T16:51:13.250Z,52.30
2019-02-28T16:53:43.749Z,48.10
2019-02-28T16:56:15.924Z,55.57
2019-02-28T16:58:46.388Z,45.27
2019-02-28T17:01:17.596Z,52.73
2019-02-28T17:03:49.186Z,50.30
2019-02-28T17:06:19.712Z,55.90
2019-02-28T17:09:01.834Z,50.67
2019-02-28T17:11:32.329Z,48.07
2019-02-28T17:14:10.303Z,40.53
2019-02-28T17:16:55.010Z,53.27
2019-02-28T17:19:28.602Z,46.20
2019-02-28T17:21:57.880Z,51.97
2019-02-28T17:24:29.549Z,52.93
2019-02-28T17:27:19.020Z,56.07
2019-02-28T17:29:57.631Z,51.27
2019-02-28T17:32:31.174Z,49.23
2019-02-28T17:34:59.838Z,43.70
2019-02-28T17:37:30.331Z,47.27
2019-02-28T17:40:00.791Z,41.93
2019-02-28T17:42:31.603Z,42.10
2019-02-28T17:45:18.175Z,45.67
2019-02-28T17:48:27.983Z,48.97
2019-02-28T17:51:09.842Z,45.80
2019-02-28T17:54:20.869Z,45.60
2019-02-28T17:57:45.105Z,40.70
2019-02-28T18:00:58.457Z,45.37
2019-02-28T18:04:36.464Z,40.20
2019-02-28T18:08:20.125Z,36.27
2019-02-28T18:11:30.943Z,30.93
2019-02-28T18:14:21.328Z,31.00
2019-02-28T18:18:08.777Z,40.47
2019-02-28T18:21:22.842Z,29.83
2019-02-28T18:25:00.402Z,29.00
2019-02-28T18:28:37.710Z,31.07
2019-02-28T18:31:19.091Z,38.97
2019-02-28T18:34:16.971Z,26.60
2019-02-28T18:36:46.612Z,33.20
2019-02-28T18:39:18.393Z,21.00
2019-02-28T18:41:50.737Z,17.17
2019-02-28T18:44:21.360Z,19.13
2019-02-28T18:46:51.954Z,19.00
2019-02-28T18:49:22.559Z,17.63
2019-02-28T18:51:53.197Z,16.17
2019-02-28T18:54:23.858Z,17.67
2019-02-28T18:56:54.396Z,18.80
2019-02-28T18:59:25.499Z,15.43
2019-02-28T19:01:56.114Z,13.73
2019-02-28T19:04:26.726Z,14.07
2019-02-28T19:06:57.361Z,12.83
2019-02-28T19:09:30.965Z,17.63
2019-02-28T19:12:01.576Z,14.33
2019-02-28T19:14:32.218Z,14.90
2019-02-28T19:17:02.918Z,12.60
2019-02-28T19:19:33.505Z,14.87
2019-02-28T19:22:04.166Z,12.00
2019-02-28T19:24:34.718Z,17.40
2019-02-28T19:27:05.257Z,11.90
2019-02-28T19:29:35.955Z,13.27
2019-02-28T19:32:06.560Z,13.07
2019-02-28T19:34:37.187Z,14.50
2019-02-28T19:37:07.815Z,10.27
2019-02-28T19:39:38.417Z,17.10
2019-02-28T19:42:08.960Z,11.27
2019-02-28T19:44:42.530Z,9.83
2019-02-28T19:47:13.070Z,8.37
2019-02-28T19:49:43.623Z,10.23
2019-02-28T19:52:14.362Z,12.43
2019-02-28T19:54:44.857Z,9.00
2019-02-28T19:57:15.461Z,12.30
2019-02-28T19:59:46.010Z,8.53
2019-02-28T20:02:16.540Z,10.53
2019-02-28T20:04:47.060Z,11.27
2019-02-28T20:07:17.666Z,9.20
2019-02-28T20:09:48.238Z,16.87
2019-02-28T20:12:18.708Z,8.07
2019-02-28T20:14:49.318Z,12.17
2019-02-28T20:17:19.924Z,9.70
2019-02-28T20:19:50.473Z,12.13
2019-02-28T20:22:20.981Z,9.43
2019-02-28T20:24:51.511Z,9.33
2019-02-28T20:27:22.070Z,13.53
2019-02-28T20:29:55.292Z,13.10
2019-02-28T20:32:25.057Z,12.77
2019-02-28T20:34:55.706Z,10.40
2019-02-28T20:37:26.263Z,12.23
2019-02-28T20:39:57.801Z,13.27
2019-02-28T20:42:28.356Z,13.50
2019-02-28T20:44:58.961Z,13.43
2019-02-28T20:47:29.457Z,14.77
2019-02-28T20:49:59.998Z,17.70
2019-02-28T20:52:30.568Z,11.20
2019-02-28T20:55:01.170Z,13.07
2019-02-28T20:57:31.689Z,11.67
2019-02-28T21:00:02.250Z,10.90
2019-02-28T21:02:32.742Z,10.93
2019-02-28T21:05:03.355Z,11.60
2019-02-28T21:07:33.852Z,12.10
2019-02-28T21:10:05.187Z,10.83
2019-02-28T21:12:35.711Z,8.67
2019-02-28T21:15:07.307Z,12.10
2019-02-28T21:17:37.872Z,11.90
2019-02-28T21:20:09.838Z,8.53
2019-02-28T21:22:40.418Z,8.23
2019-02-28T21:25:14.287Z,9.17
2019-02-28T21:27:45.118Z,8.43
2019-02-28T21:30:19.066Z,10.23
2019-02-28T21:32:49.697Z,13.17
2019-02-28T21:35:20.688Z,12.17
2019-02-28T21:37:51.482Z,11.47
2019-02-28T21:40:23.063Z,10.93
2019-02-28T21:42:53.775Z,11.00
2019-02-28T21:45:24.412Z,11.97
2019-02-28T21:47:54.974Z,16.47
2019-02-28T21:50:25.855Z,14.97
2019-02-28T21:52:56.493Z,12.00
2019-02-28T21:55:27.019Z,15.07
2019-02-28T21:57:57.588Z,13.90
2019-02-28T22:00:28.215Z,13.73
2019-02-28T22:02:58.818Z,18.57
2019-02-28T22:05:29.295Z,15.90
2019-02-28T22:07:59.793Z,15.87
2019-02-28T22:10:30.319Z,13.90
2019-02-28T22:13:00.853Z,17.47
2019-02-28T22:15:31.531Z,18.23
2019-02-28T22:18:02.008Z,15.23
2019-02-28T22:20:32.480Z,13.33
2019-02-28T22:23:02.986Z,17.07
2019-02-28T22:25:33.565Z,17.20
2019-02-28T22:28:04.090Z,15.20
2019-02-28T22:30:56.546Z,15.07
2019-02-28T22:33:39.265Z,14.93
2019-02-28T22:36:11.936Z,18.57
2019-02-28T22:38:42.475Z,14.70
2019-02-28T22:41:12.983Z,11.87
2019-02-28T22:43:43.462Z,12.73
2019-02-28T22:46:14.027Z,10.10
2019-02-28T22:48:44.533Z,15.20
2019-02-28T22:51:15.143Z,12.50
2019-02-28T22:53:45.652Z,13.47
2019-02-28T22:56:16.158Z,12.87
2019-02-28T22:58:46.649Z,15.10
2019-02-28T23:01:20.087Z,13.23
2019-02-28T23:03:50.576Z,14.33
2019-02-28T23:06:21.087Z,16.60
2019-02-28T23:08:51.601Z,13.27
2019-02-28T23:11:22.199Z,13.33
2019-02-28T23:13:52.730Z,14.70
2019-02-28T23:16:23.238Z,13.70
2019-02-28T23:18:53.841Z,18.67
2019-02-28T23:21:24.325Z,17.93
2019-02-28T23:23:55.029Z,16.77
2019-02-28T23:26:28.635Z,15.17
2019-02-28T23:29:15.454Z,14.20
2019-02-28T23:32:33.517Z,16.23
2019-02-28T23:35:04.364Z,17.20
2019-02-28T23:37:34.897Z,16.83
2019-02-28T23:40:05.757Z,14.60
2019-02-28T23:42:36.309Z,16.33
2019-02-28T23:45:06.952Z,17.93
2019-02-28T23:47:37.472Z,16.13
2019-02-28T23:50:08.887Z,15.50
2019-02-28T23:52:39.350Z,15.97
2019-02-28T23:55:09.914Z,16.70
2019-02-28T23:57:40.545Z,19.93
